Time;durP1;ratioP1;P1;durP2;ratioP2;P2;SDS_P1;SDS_P2;PMS_P1;PMS_P2;Temp;Humidity;BMP_temperature;BMP_pressure;BME280_temperature;BME280_humidity;BME280_pressure;Samples;Min_cycle;Max_cycle;Signal;HPM_P1;HPM_P2
2023/05/07 00:00:43;;;;;;;7.78;3.03;;;13.70;99.90;;;;;;5090025;28;20490;-61
2023/05/07 00:03:09;;;;;;;7.80;2.65;;;13.70;99.90;;;;;;5089818;28;20044;-61
2023/05/07 00:05:35;;;;;;;5.75;3.13;;;13.70;99.90;;;;;;5091149;28;20317;-61
2023/05/07 00:08:01;;;;;;;5.28;2.90;;;13.70;99.90;;;;;;5089138;28;20052;-60
2023/05/07 00:10:27;;;;;;;7.45;2.97;;;13.70;99.90;;;;;;5089804;28;20508;-61
2023/05/07 00:12:53;;;;;;;5.95;2.63;;;13.70;99.90;;;;;;5089365;28;20047;-60
2023/05/07 00:15:18;;;;;;;5.28;2.92;;;13.70;99.90;;;;;;5072764;28;20110;-61
2023/05/07 00:17:44;;;;;;;9.10;3.85;;;13.70;99.90;;;;;;5089054;28;20043;-61
2023/05/07 00:20:10;;;;;;;4.82;2.50;;;13.70;99.90;;;;;;5089631;28;20044;-61
2023/05/07 00:22:36;;;;;;;9.82;3.75;;;13.70;99.90;;;;;;5072782;28;20036;-61
2023/05/07 00:25:02;;;;;;;8.10;3.88;;;13.70;99.90;;;;;;5088953;28;20555;-61
2023/05/07 00:27:28;;;;;;;7.40;2.80;;;13.70;99.90;;;;;;5089649;28;20040;-60
2023/05/07 00:29:54;;;;;;;6.45;3.05;;;13.70;99.90;;;;;;5091170;28;20105;-61
2023/05/07 00:32:20;;;;;;;4.80;2.88;;;13.70;99.90;;;;;;5090376;28;20115;-61
2023/05/07 00:34:45;;;;;;;4.88;2.60;;;13.70;99.90;;;;;;5089686;28;20044;-61
2023/05/07 00:37:11;;;;;;;7.47;3.17;;;13.70;99.90;;;;;;5091027;28;20472;-61
2023/05/07 00:39:37;;;;;;;7.03;3.47;;;13.70;99.90;;;;;;5090257;28;20039;-61
2023/05/07 00:42:04;;;;;;;7.53;3.47;;;13.70;99.90;;;;;;5089429;28;20548;-61
2023/05/07 00:44:30;;;;;;;6.53;3.38;;;13.70;99.90;;;;;;5089244;28;20046;-61
2023/05/07 00:46:57;;;;;;;7.18;3.20;;;13.70;99.90;;;;;;5071760;28;20032;-61
2023/05/07 00:49:33;;;;;;;9.20;3.50;;;13.70;99.90;;;;;;5089160;28;20119;-61
2023/05/07 00:52:00;;;;;;;6.40;2.67;;;13.70;99.90;;;;;;5072472;28;20515;-61
2023/05/07 00:54:26;;;;;;;7.15;3.40;;;13.70;99.90;;;;;;5089717;28;20044;-61
2023/05/07 00:56:52;;;;;;;5.05;3.00;;;13.70;99.90;;;;;;5090503;28;20044;-61
2023/05/07 00:59:18;;;;;;;6.32;2.78;;;13.70;99.90;;;;;;5089374;28;20503;-61
2023/05/07 01:01:45;;;;;;;5.80;2.70;;;13.70;99.90;;;;;;5088323;28;20051;-61
2023/05/07 01:04:10;;;;;;;8.73;3.35;;;13.70;99.90;;;;;;5088862;28;20072;-61
2023/05/07 01:06:37;;;;;;;9.52;3.70;;;13.70;99.90;;;;;;5088174;28;20114;-61
2023/05/07 01:09:04;;;;;;;6.00;3.08;;;13.60;99.90;;;;;;5088866;28;20032;-61
2023/05/07 01:11:30;;;;;;;5.20;2.95;;;13.60;99.90;;;;;;5088976;28;20044;-62
2023/05/07 01:13:59;;;;;;;6.68;3.28;;;13.60;99.90;;;;;;5071161;28;20387;-61
2023/05/07 01:16:25;;;;;;;6.90;3.38;;;13.60;99.90;;;;;;5089869;28;20032;-61
2023/05/07 01:18:50;;;;;;;7.22;2.88;;;13.50;99.90;;;;;;5088652;28;20046;-61
2023/05/07 01:21:18;;;;;;;7.90;3.47;;;13.50;99.90;;;;;;5089407;28;20119;-62
2023/05/07 01:23:45;;;;;;;6.68;3.08;;;13.50;99.90;;;;;;5071494;28;20040;-61
2023/05/07 01:26:10;;;;;;;7.35;3.30;;;13.50;99.90;;;;;;5089918;28;20123;-61
2023/05/07 01:28:36;;;;;;;6.60;3.25;;;13.50;99.90;;;;;;5087824;28;20126;-61
2023/05/07 01:31:04;;;;;;;8.13;3.88;;;13.50;99.90;;;;;;5089932;28;20081;-62
2023/05/07 01:33:33;;;;;;;5.68;2.92;;;13.40;99.90;;;;;;5071583;28;20123;-62
2023/05/07 01:36:03;;;;;;;6.05;3.28;;;13.40;99.90;;;;;;5087788;28;20079;-62
2023/05/07 01:38:30;;;;;;;7.78;3.05;;;13.40;99.90;;;;;;5089546;28;20036;-62
2023/05/07 01:40:57;;;;;;;4.70;2.47;;;13.40;99.90;;;;;;5089878;28;20101;-62
2023/05/07 01:43:23;;;;;;;6.43;3.30;;;13.40;99.90;;;;;;5089016;28;20363;-62
2023/05/07 01:45:49;;;;;;;7.40;3.00;;;13.40;99.90;;;;;;5089321;28;20047;-62
2023/05/07 01:48:15;;;;;;;6.78;2.88;;;13.40;99.90;;;;;;5088269;28;20040;-61
2023/05/07 01:50:45;;;;;;;5.97;2.90;;;13.40;99.90;;;;;;5087368;28;20040;-62
2023/05/07 01:53:10;;;;;;;5.00;2.47;;;13.40;99.90;;;;;;5087946;28;20055;-62
2023/05/07 01:55:39;;;;;;;4.35;2.35;;;13.40;99.90;;;;;;5088722;28;20036;-62
2023/05/07 01:58:05;;;;;;;7.27;3.17;;;13.30;99.90;;;;;;5088263;28;20036;-62
2023/05/07 02:00:31;;;;;;;6.40;2.75;;;13.30;99.90;;;;;;5087807;28;20640;-62
2023/05/07 02:02:57;;;;;;;5.72;2.60;;;13.30;99.90;;;;;;5088506;28;20036;-62
2023/05/07 02:05:24;;;;;;;6.57;2.88;;;13.30;99.90;;;;;;5087903;28;20036;-63
2023/05/07 02:07:49;;;;;;;7.40;3.05;;;13.30;99.90;;;;;;5089279;28;20414;-62
2023/05/07 02:10:15;;;;;;;6.15;2.85;;;13.30;99.90;;;;;;5087291;28;20032;-63
2023/05/07 02:12:42;;;;;;;6.75;2.63;;;13.30;99.90;;;;;;5089484;28;20437;-63
2023/05/07 02:15:09;;;;;;;4.97;2.65;;;13.30;99.90;;;;;;5087524;28;20065;-63
2023/05/07 02:17:35;;;;;;;5.38;2.85;;;13.20;99.90;;;;;;5087374;28;20044;-63
2023/05/07 02:20:00;;;;;;;8.20;2.67;;;13.20;99.90;;;;;;5089095;28;20032;-63
2023/05/07 02:22:26;;;;;;;3.70;2.20;;;13.20;99.90;;;;;;5087825;28;20448;-63
2023/05/07 02:24:52;;;;;;;6.50;2.67;;;13.20;99.90;;;;;;5088409;28;20040;-62
2023/05/07 02:27:18;;;;;;;8.82;3.10;;;13.10;99.90;;;;;;5087460;28;20036;-63
2023/05/07 02:29:44;;;;;;;4.82;2.55;;;13.20;99.90;;;;;;5072051;28;20050;-63
2023/05/07 02:32:09;;;;;;;4.72;2.33;;;13.10;99.90;;;;;;5093842;28;20517;-62
2023/05/07 02:34:36;;;;;;;6.32;3.45;;;13.10;99.90;;;;;;5077462;28;20119;-62
2023/05/07 02:37:01;;;;;;;5.75;2.80;;;13.00;99.90;;;;;;5095671;28;20040;-64
2023/05/07 02:39:27;;;;;;;4.78;2.97;;;13.00;99.90;;;;;;5095130;28;20028;-63
2023/05/07 02:41:53;;;;;;;5.10;3.20;;;12.90;99.90;;;;;;5077290;28;20516;-63
2023/05/07 02:44:19;;;;;;;6.10;3.08;;;12.90;99.90;;;;;;5094187;28;20071;-63
2023/05/07 02:46:44;;;;;;;6.63;3.30;;;12.90;99.90;;;;;;5093656;28;20036;-64
2023/05/07 02:49:10;;;;;;;7.10;2.95;;;12.90;99.90;;;;;;5077146;28;20515;-62
2023/05/07 02:51:36;;;;;;;5.35;2.88;;;12.90;99.90;;;;;;5093715;28;20040;-63
2023/05/07 02:54:02;;;;;;;7.07;3.53;;;12.80;99.90;;;;;;5094260;28;20050;-63
2023/05/07 02:56:28;;;;;;;6.25;2.97;;;12.80;99.90;;;;;;5095778;28;20036;-63
2023/05/07 02:58:54;;;;;;;8.05;3.72;;;12.80;99.90;;;;;;5093372;28;20035;-64
2023/05/07 03:01:20;;;;;;;9.13;3.45;;;12.70;99.90;;;;;;5093902;28;20036;-63
2023/05/07 03:03:46;;;;;;;7.85;3.65;;;12.70;99.90;;;;;;5095103;28;20497;-63
2023/05/07 03:06:12;;;;;;;5.05;3.28;;;12.70;99.90;;;;;;5093390;28;20051;-64
2023/05/07 03:08:37;;;;;;;6.18;3.17;;;12.60;99.90;;;;;;5094042;28;20036;-64
2023/05/07 03:11:03;;;;;;;9.00;4.35;;;12.60;99.90;;;;;;5095090;28;20046;-65
2023/05/07 03:13:30;;;;;;;8.57;3.90;;;12.50;99.90;;;;;;5093383;28;20036;-65
2023/05/07 03:15:55;;;;;;;9.20;3.63;;;12.50;99.90;;;;;;5094307;28;20468;-63
2023/05/07 03:18:21;;;;;;;6.30;3.47;;;12.50;99.90;;;;;;5094154;28;20079;-64
2023/05/07 03:20:48;;;;;;;7.95;3.83;;;12.40;99.90;;;;;;5093107;28;20047;-64
2023/05/07 03:23:14;;;;;;;7.95;4.28;;;12.40;99.90;;;;;;5095444;28;20040;-64
2023/05/07 03:25:40;;;;;;;8.25;4.50;;;12.40;99.90;;;;;;5093993;28;20050;-64
2023/05/07 03:28:06;;;;;;;10.93;4.05;;;12.30;99.90;;;;;;5093026;28;20517;-65
2023/05/07 03:30:31;;;;;;;6.78;4.20;;;12.30;99.90;;;;;;5093665;28;20044;-65
2023/05/07 03:32:58;;;;;;;6.50;3.58;;;12.30;99.90;;;;;;5095009;28;20149;-64
2023/05/07 03:35:24;;;;;;;9.93;4.35;;;12.20;99.90;;;;;;5094654;28;20048;-64
2023/05/07 03:37:50;;;;;;;10.30;3.72;;;12.20;99.90;;;;;;5095301;28;20044;-65
2023/05/07 03:40:16;;;;;;;7.70;3.70;;;12.10;99.90;;;;;;5095176;28;20047;-64
2023/05/07 03:42:42;;;;;;;7.15;3.63;;;12.10;99.90;;;;;;5090304;28;20044;-65
2023/05/07 03:45:08;;;;;;;8.35;4.18;;;12.10;99.90;;;;;;5092067;28;20154;-65
2023/05/07 03:47:34;;;;;;;9.68;4.18;;;12.10;99.90;;;;;;5089786;28;20119;-65
2023/05/07 03:50:00;;;;;;;9.40;4.28;;;12.00;99.90;;;;;;5091816;28;20170;-64
2023/05/07 03:52:25;;;;;;;6.97;4.00;;;12.00;99.90;;;;;;5073596;28;20457;-65
2023/05/07 03:54:53;;;;;;;8.30;4.25;;;12.00;99.90;;;;;;5091437;28;20090;-64
2023/05/07 03:57:19;;;;;;;7.00;3.95;;;12.00;99.90;;;;;;5091368;28;20044;-65
2023/05/07 03:59:45;;;;;;;9.75;5.32;;;11.90;99.90;;;;;;5090304;28;20055;-64
2023/05/07 04:02:11;;;;;;;8.18;4.00;;;11.90;99.90;;;;;;5089351;28;20103;-64
2023/05/07 04:04:37;;;;;;;14.60;5.65;;;11.80;99.90;;;;;;5090275;28;20117;-64
2023/05/07 04:07:03;;;;;;;8.40;4.60;;;11.80;99.90;;;;;;5089941;28;20036;-64
2023/05/07 04:09:28;;;;;;;10.57;4.80;;;11.80;99.90;;;;;;5089774;28;20044;-63
2023/05/07 04:11:54;;;;;;;7.93;4.28;;;11.80;99.90;;;;;;5089919;28;20500;-64
2023/05/07 04:14:20;;;;;;;9.27;4.25;;;11.80;99.90;;;;;;5089694;28;20113;-64
2023/05/07 04:16:46;;;;;;;13.98;4.63;;;11.80;99.90;;;;;;5090785;28;20036;-64
2023/05/07 04:19:12;;;;;;;10.05;4.22;;;11.80;99.90;;;;;;5090024;28;20051;-64
2023/05/07 04:21:37;;;;;;;13.45;4.30;;;11.80;99.90;;;;;;5072972;28;20079;-64
2023/05/07 04:24:04;;;;;;;8.93;4.30;;;11.80;99.90;;;;;;5088974;28;20407;-64
2023/05/07 04:26:30;;;;;;;12.32;5.32;;;11.80;99.90;;;;;;5089992;28;20032;-64
2023/05/07 04:28:56;;;;;;;10.05;4.05;;;11.80;99.90;;;;;;5089510;28;20529;-64
2023/05/07 04:31:22;;;;;;;12.82;4.03;;;11.70;99.90;;;;;;5089152;28;20044;-64
2023/05/07 04:33:48;;;;;;;10.98;4.53;;;11.70;99.90;;;;;;5072887;28;20039;-64
2023/05/07 04:36:14;;;;;;;9.20;4.68;;;11.70;99.90;;;;;;5090948;28;20535;-64
2023/05/07 04:38:39;;;;;;;8.07;4.10;;;11.70;99.90;;;;;;5088986;28;20093;-64
2023/05/07 04:41:06;;;;;;;10.57;4.50;;;11.70;99.90;;;;;;5089567;28;20077;-64
2023/05/07 04:43:32;;;;;;;8.98;4.47;;;11.70;99.90;;;;;;5090729;28;20048;-64
2023/05/07 04:45:58;;;;;;;7.20;4.32;;;11.70;99.90;;;;;;5090879;28;20032;-63
2023/05/07 04:48:24;;;;;;;9.35;5.05;;;11.70;99.90;;;;;;5090545;28;20486;-64
2023/05/07 04:50:50;;;;;;;11.52;4.97;;;11.70;99.90;;;;;;5088816;28;20071;-63
2023/05/07 04:53:17;;;;;;;10.43;4.68;;;11.70;99.90;;;;;;5088761;28;20040;-64
2023/05/07 04:55:44;;;;;;;9.30;4.70;;;11.70;99.90;;;;;;5088947;28;20170;-63
2023/05/07 04:58:11;;;;;;;10.40;4.78;;;11.70;99.90;;;;;;5088651;28;20434;-63
2023/05/07 05:00:38;;;;;;;7.32;4.22;;;11.70;99.90;;;;;;5072368;28;20093;-63
2023/05/07 05:03:05;;;;;;;11.48;4.22;;;11.70;99.90;;;;;;5088764;28;20050;-63
2023/05/07 05:05:31;;;;;;;13.85;5.95;;;11.70;99.90;;;;;;5089496;28;20478;-63
2023/05/07 05:07:56;;;;;;;9.30;4.90;;;11.70;99.90;;;;;;5090102;28;20044;-63
2023/05/07 05:10:22;;;;;;;11.85;5.82;;;11.60;99.90;;;;;;5071999;28;20044;-63
2023/05/07 05:12:48;;;;;;;9.85;4.97;;;11.70;99.90;;;;;;5089360;28;20047;-63
2023/05/07 05:15:14;;;;;;;8.85;4.07;;;11.70;99.90;;;;;;5088481;28;20087;-63
2023/05/07 05:17:40;;;;;;;10.02;5.25;;;11.70;99.90;;;;;;5088782;28;20418;-63
2023/05/07 05:20:06;;;;;;;9.85;5.65;;;11.70;99.90;;;;;;5089506;28;20124;-63
2023/05/07 05:22:32;;;;;;;10.85;5.05;;;11.70;99.90;;;;;;5088722;28;20051;-63
2023/05/07 05:24:58;;;;;;;12.00;4.95;;;11.80;99.90;;;;;;5088728;28;20425;-63
2023/05/07 05:27:24;;;;;;;13.23;5.38;;;11.80;99.90;;;;;;5089367;28;20040;-63
2023/05/07 05:29:50;;;;;;;11.25;5.05;;;11.80;99.90;;;;;;5088713;28;20043;-63
2023/05/07 05:32:16;;;;;;;10.15;5.80;;;11.80;99.90;;;;;;5089560;28;20040;-63
2023/05/07 05:34:41;;;;;;;16.33;8.30;;;11.80;99.90;;;;;;5087879;28;20083;-63
2023/05/07 05:37:07;;;;;;;15.10;6.55;;;11.80;99.90;;;;;;5089837;28;20032;-63
2023/05/07 05:39:33;;;;;;;14.25;5.93;;;11.80;99.90;;;;;;5089108;28;20040;-64
2023/05/07 05:41:59;;;;;;;11.05;6.07;;;11.80;99.90;;;;;;5088435;28;20051;-63
2023/05/07 05:44:25;;;;;;;10.77;5.32;;;11.80;99.90;;;;;;5088081;28;20387;-63
2023/05/07 05:46:51;;;;;;;10.70;5.45;;;11.70;99.90;;;;;;5087493;28;20040;-63
2023/05/07 05:49:17;;;;;;;12.05;5.28;;;11.70;99.90;;;;;;5088808;28;20046;-63
2023/05/07 05:51:43;;;;;;;12.18;5.40;;;11.70;99.90;;;;;;5087918;28;20032;-63
2023/05/07 05:54:09;;;;;;;16.00;6.60;;;11.80;99.90;;;;;;5110697;28;20123;-62
2023/05/07 05:56:36;;;;;;;15.18;5.95;;;11.80;99.90;;;;;;5109928;28;20079;-62
2023/05/07 05:59:02;;;;;;;14.05;5.18;;;11.80;99.90;;;;;;5109647;28;20035;-63
2023/05/07 06:01:28;;;;;;;8.73;4.70;;;11.80;99.90;;;;;;5110417;28;20393;-63
2023/05/07 06:03:53;;;;;;;11.20;6.40;;;11.80;99.90;;;;;;5109402;28;20082;-64
2023/05/07 06:06:19;;;;;;;12.05;5.75;;;11.90;99.90;;;;;;5108613;28;20044;-63
2023/05/07 06:08:45;;;;;;;12.38;5.13;;;12.00;99.90;;;;;;5110316;28;20118;-63
2023/05/07 06:11:11;;;;;;;10.20;4.82;;;12.00;99.90;;;;;;5109742;28;20083;-64
2023/05/07 06:13:37;;;;;;;13.73;5.40;;;12.00;99.90;;;;;;5110431;28;20040;-64
2023/05/07 06:16:03;;;;;;;10.18;4.65;;;12.10;99.90;;;;;;5109879;28;20560;-64
2023/05/07 06:18:29;;;;;;;11.93;5.38;;;12.10;99.90;;;;;;5109423;28;20561;-64
2023/05/07 06:20:55;;;;;;;11.68;5.93;;;12.10;99.90;;;;;;5110819;28;20048;-64
2023/05/07 06:23:21;;;;;;;20.40;5.97;;;12.20;99.90;;;;;;5108806;28;20043;-64
2023/05/07 06:25:51;;;;;;;8.18;4.68;;;12.20;99.90;;;;;;5109339;28;20075;-64
2023/05/07 06:28:17;;;;;;;8.52;3.97;;;12.30;99.90;;;;;;5110731;28;20032;-65
2023/05/07 06:30:43;;;;;;;13.30;5.68;;;12.30;99.90;;;;;;5108644;28;20042;-64
2023/05/07 06:33:08;;;;;;;11.50;5.40;;;12.40;99.90;;;;;;5109499;28;20043;-64
2023/05/07 06:35:34;;;;;;;9.98;4.80;;;12.40;99.90;;;;;;5108485;28;20687;-63
2023/05/07 06:38:01;;;;;;;10.88;5.22;;;12.40;99.90;;;;;;5110405;28;20075;-64
2023/05/07 06:40:27;;;;;;;10.48;4.50;;;12.50;99.90;;;;;;5109390;28;20083;-63
2023/05/07 06:42:53;;;;;;;12.18;5.43;;;12.50;99.90;;;;;;5108512;28;20065;-64
2023/05/07 06:45:20;;;;;;;11.30;4.97;;;12.60;99.90;;;;;;5109147;28;20123;-65
2023/05/07 06:47:46;;;;;;;11.88;5.03;;;12.60;99.90;;;;;;5109029;28;20036;-64
2023/05/07 06:50:11;;;;;;;12.77;5.28;;;12.70;99.90;;;;;;5097383;28;20043;-65
2023/05/07 06:52:37;;;;;;;9.55;4.57;;;12.80;99.90;;;;;;5088044;28;20138;-65
2023/05/07 06:55:04;;;;;;;10.57;4.13;;;12.90;99.90;;;;;;5070529;28;20405;-65
2023/05/07 06:57:29;;;;;;;9.32;4.65;;;12.90;99.90;;;;;;5086789;28;20044;-65
2023/05/07 06:59:55;;;;;;;11.73;5.35;;;13.00;99.90;;;;;;5086660;28;20040;-65
2023/05/07 07:02:21;;;;;;;10.20;4.43;;;13.00;99.90;;;;;;5087883;28;20094;-66
2023/05/07 07:04:47;;;;;;;14.02;6.65;;;13.00;99.90;;;;;;5089126;28;20067;-65
2023/05/07 07:07:13;;;;;;;11.02;5.28;;;13.10;99.90;;;;;;5089503;28;20040;-65
2023/05/07 07:09:39;;;;;;;11.32;5.47;;;13.10;99.90;;;;;;5088367;28;20119;-65
2023/05/07 07:12:05;;;;;;;9.88;4.57;;;13.10;99.90;;;;;;5087045;28;20051;-65
2023/05/07 07:14:30;;;;;;;10.10;5.35;;;13.10;99.90;;;;;;5087004;28;20113;-65
2023/05/07 07:16:56;;;;;;;11.15;5.03;;;13.10;99.90;;;;;;5088061;28;20044;-66
2023/05/07 07:19:22;;;;;;;10.13;5.32;;;13.10;99.90;;;;;;5089777;28;20048;-65
2023/05/07 07:21:48;;;;;;;15.57;6.20;;;13.10;99.90;;;;;;5072788;28;20073;-66
2023/05/07 07:24:18;;;;;;;10.73;5.40;;;13.20;99.90;;;;;;5090986;28;20032;-65
2023/05/07 07:26:45;;;;;;;12.07;5.07;;;13.30;99.90;;;;;;5090312;28;20565;-66
2023/05/07 07:29:10;;;;;;;12.98;5.57;;;13.40;99.90;;;;;;5091399;28;20516;-65
2023/05/07 07:31:36;;;;;;;12.60;5.05;;;13.50;99.90;;;;;;5091728;28;20048;-65
2023/05/07 07:34:02;;;;;;;7.10;4.20;;;13.60;99.90;;;;;;5092248;28;20063;-65
2023/05/07 07:36:28;;;;;;;8.82;4.65;;;13.70;99.90;;;;;;5090733;28;20500;-66
2023/05/07 07:38:54;;;;;;;8.55;4.88;;;13.80;99.90;;;;;;5090600;28;20035;-65
2023/05/07 07:41:20;;;;;;;5.97;4.07;;;13.90;99.90;;;;;;5073981;28;20119;-65
2023/05/07 07:43:46;;;;;;;11.05;4.57;;;14.00;99.90;;;;;;5090785;28;20126;-65
2023/05/07 07:46:12;;;;;;;10.23;5.07;;;14.10;99.90;;;;;;5089982;28;20581;-65
2023/05/07 07:48:38;;;;;;;12.43;5.22;;;14.20;99.90;;;;;;5091945;28;20398;-65
2023/05/07 07:51:04;;;;;;;9.25;5.05;;;14.30;99.90;;;;;;5090838;28;20036;-65
2023/05/07 07:53:30;;;;;;;10.35;5.95;;;14.40;99.90;;;;;;5073221;28;20105;-65
2023/05/07 07:55:58;;;;;;;11.52;5.72;;;14.60;99.90;;;;;;5090646;28;20126;-65
2023/05/07 07:58:27;;;;;;;12.65;6.35;;;14.60;99.90;;;;;;5090858;28;20390;-64
2023/05/07 08:00:54;;;;;;;10.48;4.90;;;14.70;99.90;;;;;;5089634;28;20035;-64
2023/05/07 08:03:20;;;;;;;10.15;5.53;;;14.80;99.90;;;;;;5090058;28;20131;-64
2023/05/07 08:05:46;;;;;;;12.27;5.68;;;14.90;99.90;;;;;;5090078;28;20124;-64
2023/05/07 08:08:11;;;;;;;12.82;4.70;;;15.10;99.90;;;;;;5089795;28;20044;-63
2023/05/07 08:10:39;;;;;;;13.60;5.40;;;15.20;99.90;;;;;;5091765;28;20128;-64
2023/05/07 08:13:06;;;;;;;9.77;5.32;;;15.30;99.90;;;;;;5090392;28;20080;-66
2023/05/07 08:15:32;;;;;;;12.48;4.80;;;15.40;99.90;;;;;;5090700;28;20125;-64
2023/05/07 08:17:59;;;;;;;13.23;6.28;;;15.50;99.90;;;;;;5089768;28;20044;-65
2023/05/07 08:20:26;;;;;;;13.73;4.75;;;15.60;99.90;;;;;;5091114;28;20633;-66
2023/05/07 08:22:51;;;;;;;9.35;4.30;;;15.80;99.90;;;;;;5089237;28;20541;-64
2023/05/07 08:25:17;;;;;;;12.98;5.55;;;15.80;99.90;;;;;;5090045;28;20039;-63
2023/05/07 08:27:44;;;;;;;13.68;5.68;;;15.90;99.90;;;;;;5088237;28;20036;-64
2023/05/07 08:30:11;;;;;;;11.95;4.95;;;15.90;99.90;;;;;;5089897;28;20044;-64
2023/05/07 08:32:36;;;;;;;11.88;5.20;;;16.10;99.90;;;;;;5091199;28;20098;-64
2023/05/07 08:35:03;;;;;;;8.63;5.05;;;16.20;99.90;;;;;;5090554;28;20048;-64
2023/05/07 08:37:29;;;;;;;12.68;6.13;;;16.40;99.90;;;;;;5091030;28;20119;-64
2023/05/07 08:39:54;;;;;;;9.75;5.25;;;16.50;99.90;;;;;;5089471;28;20123;-64
2023/05/07 08:42:23;;;;;;;14.02;5.97;;;16.50;99.90;;;;;;5088906;28;20077;-64
2023/05/07 08:44:53;;;;;;;12.23;6.53;;;16.60;99.90;;;;;;5091194;28;20028;-65
2023/05/07 08:47:19;;;;;;;7.20;5.32;;;16.70;99.90;;;;;;5089524;28;20119;-63
2023/05/07 08:49:45;;;;;;;9.45;5.10;;;16.70;99.90;;;;;;5090186;28;20094;-64
2023/05/07 08:52:12;;;;;;;9.27;4.30;;;16.80;99.90;;;;;;5089312;28;20044;-64
2023/05/07 08:54:38;;;;;;;11.02;4.93;;;16.90;99.90;;;;;;5089350;28;20051;-64
2023/05/07 08:57:04;;;;;;;10.73;5.18;;;17.10;99.90;;;;;;5101858;28;20043;-64
2023/05/07 08:59:30;;;;;;;9.68;5.40;;;17.20;99.90;;;;;;5109339;28;20390;-64
2023/05/07 09:01:56;;;;;;;8.68;4.60;;;17.20;99.90;;;;;;5110919;28;20057;-64
2023/05/07 09:04:22;;;;;;;9.20;5.30;;;17.10;99.90;;;;;;5091642;28;20051;-65
2023/05/07 09:06:48;;;;;;;8.85;5.25;;;17.10;99.90;;;;;;5109376;28;20043;-63
2023/05/07 09:09:20;;;;;;;12.23;6.47;;;17.10;99.90;;;;;;5109102;28;20063;-64
2023/05/07 09:11:46;;;;;;;9.68;4.60;;;17.10;99.90;;;;;;5091450;28;20089;-64
2023/05/07 09:14:12;;;;;;;8.98;4.80;;;17.20;99.90;;;;;;5092271;28;20059;-64
2023/05/07 09:16:38;;;;;;;7.80;4.32;;;17.20;99.90;;;;;;5108949;28;20120;-64
2023/05/07 09:19:04;;;;;;;10.02;5.05;;;17.30;99.90;;;;;;5109082;28;20556;-64
2023/05/07 09:21:30;;;;;;;12.95;5.55;;;17.40;99.90;;;;;;5109158;28;20127;-65
2023/05/07 09:23:56;;;;;;;11.23;5.43;;;17.50;99.90;;;;;;5108549;28;20044;-64
2023/05/07 09:26:23;;;;;;;8.90;4.32;;;17.70;99.90;;;;;;5092201;28;20401;-64
2023/05/07 09:28:48;;;;;;;13.23;5.60;;;17.80;99.90;;;;;;5110124;28;20027;-64
2023/05/07 09:31:14;;;;;;;11.50;5.22;;;17.80;99.90;;;;;;5091222;28;20042;-65
2023/05/07 09:33:40;;;;;;;9.65;5.32;;;17.90;99.90;;;;;;5109974;28;20055;-65
2023/05/07 09:36:08;;;;;;;9.77;6.05;;;18.10;99.90;;;;;;5108547;28;20042;-64
2023/05/07 09:38:35;;;;;;;9.77;5.47;;;18.20;99.90;;;;;;5110240;28;20110;-65
2023/05/07 09:41:09;;;;;;;8.98;4.40;;;18.30;99.90;;;;;;5110965;28;20509;-66
2023/05/07 09:43:36;;;;;;;10.88;5.25;;;18.30;99.90;;;;;;5108906;28;20443;-65
2023/05/07 09:46:05;;;;;;;12.15;5.18;;;18.20;99.90;;;;;;5107987;28;20295;-66
2023/05/07 09:48:34;;;;;;;12.77;5.65;;;18.10;99.90;;;;;;5108959;28;20387;-66
2023/05/07 09:51:02;;;;;;;13.20;5.80;;;18.00;99.90;;;;;;5108715;28;20035;-66
2023/05/07 09:53:30;;;;;;;10.77;4.60;;;18.00;99.90;;;;;;5108016;28;20044;-64
2023/05/07 09:55:58;;;;;;;8.93;4.80;;;18.00;99.90;;;;;;5108400;28;20520;-66
2023/05/07 09:58:25;;;;;;;8.95;5.28;;;18.00;99.90;;;;;;5090827;28;20079;-65
2023/05/07 10:00:52;;;;;;;13.52;5.53;;;18.00;99.90;;;;;;5108914;28;20561;-66
2023/05/07 10:03:20;;;;;;;15.27;6.78;;;18.10;99.90;;;;;;5108044;28;20035;-66
2023/05/07 10:05:47;;;;;;;10.75;5.45;;;18.30;99.90;;;;;;5108863;28;20039;-66
2023/05/07 10:08:16;;;;;;;8.70;5.65;;;18.50;99.90;;;;;;5108444;28;20040;-66
2023/05/07 10:10:43;;;;;;;10.57;5.68;;;18.60;99.90;;;;;;5108127;28;20288;-66
2023/05/07 10:13:11;;;;;;;10.50;4.55;;;18.70;99.90;;;;;;5108998;28;20119;-65
2023/05/07 10:15:37;;;;;;;11.82;6.88;;;18.80;99.90;;;;;;5107672;28;20524;-66
2023/05/07 10:18:06;;;;;;;12.68;6.15;;;19.00;99.90;;;;;;5107562;28;20454;-66
2023/05/07 10:20:34;;;;;;;7.88;4.70;;;19.00;99.90;;;;;;5107578;28;20047;-66
2023/05/07 10:23:05;;;;;;;11.95;4.82;;;19.20;99.90;;;;;;5108110;28;20043;-66
2023/05/07 10:25:32;;;;;;;10.73;5.97;;;19.60;99.90;;;;;;5091111;28;20100;-66
2023/05/07 10:28:10;;;;;;;15.80;5.90;;;19.90;99.90;;;;;;5108948;28;20086;-66
2023/05/07 10:30:55;;;;;;;7.28;4.32;;;20.20;99.90;;;;;;5107898;28;20044;-67
2023/05/07 10:33:26;;;;;;;11.02;6.30;;;20.50;99.90;;;;;;5108413;28;20389;-67
2023/05/07 10:35:58;;;;;;;10.43;5.95;;;20.90;99.90;;;;;;5107573;28;20043;-67
2023/05/07 10:38:25;;;;;;;9.90;4.93;;;21.20;99.90;;;;;;5107821;28;20492;-66
2023/05/07 10:40:51;;;;;;;8.52;4.05;;;21.50;99.90;;;;;;5107051;28;20126;-67
2023/05/07 10:43:17;;;;;;;13.38;5.90;;;21.60;99.90;;;;;;5107986;28;20079;-67
2023/05/07 10:45:43;;;;;;;9.15;4.63;;;21.70;99.90;;;;;;5107697;28;20075;-66
2023/05/07 10:48:13;;;;;;;10.07;5.07;;;21.60;99.90;;;;;;5108488;28;20556;-66
2023/05/07 10:50:43;;;;;;;9.77;4.90;;;21.70;99.90;;;;;;5108177;28;20093;-65
2023/05/07 10:53:18;;;;;;;10.15;5.75;;;21.70;99.90;;;;;;5111893;28;20050;-67
2023/05/07 10:56:09;;;;;;;10.10;5.38;;;21.60;99.90;;;;;;5111320;28;20039;-66
2023/05/07 10:58:37;;;;;;;9.88;5.50;;;21.40;99.90;;;;;;5094794;28;20046;-66
2023/05/07 11:01:03;;;;;;;9.57;4.50;;;21.50;99.90;;;;;;5111850;28;20039;-67
2023/05/07 11:03:29;;;;;;;9.15;5.20;;;21.60;99.90;;;;;;5110948;28;20097;-66
2023/05/07 11:06:15;;;;;;;8.93;4.90;;;21.60;99.90;;;;;;5111621;28;20123;-66
2023/05/07 11:08:58;;;;;;;10.90;5.35;;;21.70;99.90;;;;;;5111232;28;20397;-67
2023/05/07 11:11:47;;;;;;;11.38;5.25;;;21.70;99.90;;;;;;5111489;28;20071;-67
2023/05/07 11:14:34;;;;;;;9.95;5.03;;;21.70;99.90;;;;;;5100811;28;20052;-68
2023/05/07 11:17:03;;;;;;;9.70;4.60;;;21.70;99.90;;;;;;5110703;28;20058;-66
2023/05/07 11:19:52;;;;;;;11.15;4.85;;;21.50;99.90;;;;;;5111498;28;20043;-67
2023/05/07 11:22:35;;;;;;;9.33;4.53;;;21.30;99.90;;;;;;5111684;28;20075;-67
2023/05/07 11:25:02;;;;;;;11.55;5.05;;;21.10;99.90;;;;;;5112692;28;20046;-67
2023/05/07 11:27:29;;;;;;;9.23;4.80;;;20.90;99.90;;;;;;5111260;28;20119;-68
2023/05/07 11:29:54;;;;;;;8.02;4.82;;;20.80;99.90;;;;;;5110573;28;20032;-67
2023/05/07 11:32:27;;;;;;;9.00;4.57;;;20.60;99.90;;;;;;5111055;28;20043;-67
2023/05/07 11:34:55;;;;;;;7.75;4.50;;;20.40;99.90;;;;;;5110944;28;20047;-68
2023/05/07 11:37:22;;;;;;;9.80;4.45;;;20.30;99.90;;;;;;5093392;28;20092;-66
2023/05/07 11:39:48;;;;;;;11.35;5.18;;;20.30;99.90;;;;;;5110864;28;20044;-68
2023/05/07 11:42:31;;;;;;;9.80;4.97;;;20.30;99.90;;;;;;5110748;28;20042;-66
2023/05/07 11:44:58;;;;;;;11.13;5.80;;;20.30;99.90;;;;;;5111888;28;20031;-66
2023/05/07 11:47:25;;;;;;;8.32;4.93;;;20.20;99.90;;;;;;5112391;28;20036;-66
2023/05/07 11:49:55;;;;;;;12.00;5.90;;;20.10;99.90;;;;;;5110856;28;20050;-66
2023/05/07 11:52:23;;;;;;;9.45;5.10;;;20.10;99.90;;;;;;5110567;28;20032;-67
2023/05/07 11:54:54;;;;;;;8.10;4.25;;;20.10;99.90;;;;;;5110926;28;20046;-67
2023/05/07 11:57:20;;;;;;;7.93;5.00;;;20.10;99.90;;;;;;5093958;28;20135;-67
2023/05/07 11:59:49;;;;;;;7.57;4.07;;;20.00;99.90;;;;;;5111691;28;20039;-67
2023/05/07 12:02:16;;;;;;;9.25;5.20;;;20.00;99.90;;;;;;5109955;28;20039;-67
2023/05/07 12:04:42;;;;;;;9.68;5.40;;;20.00;99.90;;;;;;5109201;28;20501;-66
2023/05/07 12:07:13;;;;;;;8.85;4.57;;;19.90;99.90;;;;;;5110656;28;20042;-67
2023/05/07 12:09:40;;;;;;;11.73;4.28;;;19.90;99.90;;;;;;5111603;28;20066;-67
2023/05/07 12:12:06;;;;;;;8.60;3.97;;;20.00;99.90;;;;;;5093007;28;20400;-67
2023/05/07 12:14:32;;;;;;;10.75;4.93;;;20.10;99.90;;;;;;5110185;28;20113;-67
2023/05/07 12:17:02;;;;;;;8.55;4.68;;;20.30;99.90;;;;;;5111738;28;20122;-67
2023/05/07 12:19:30;;;;;;;7.20;4.20;;;20.40;99.90;;;;;;5111214;28;20435;-66
2023/05/07 12:21:57;;;;;;;8.77;4.90;;;20.50;99.90;;;;;;5110552;28;20092;-67
2023/05/07 12:24:23;;;;;;;9.82;4.75;;;20.50;99.90;;;;;;5093193;28;20036;-66
2023/05/07 12:26:49;;;;;;;8.75;4.10;;;20.60;99.90;;;;;;5110774;28;20028;-67
2023/05/07 12:29:15;;;;;;;8.38;4.22;;;20.80;99.90;;;;;;5109995;28;20176;-67
2023/05/07 12:31:43;;;;;;;7.72;4.10;;;21.00;99.90;;;;;;5111589;28;20106;-66
2023/05/07 12:34:11;;;;;;;7.60;4.65;;;21.20;99.90;;;;;;5109571;28;20057;-67
2023/05/07 12:36:39;;;;;;;7.25;4.30;;;21.30;99.90;;;;;;5093172;28;20051;-67
2023/05/07 12:39:08;;;;;;;7.28;4.25;;;21.30;99.90;;;;;;5110076;28;20100;-66
2023/05/07 12:41:54;;;;;;;;;;;21.30;99.90;;;;;;5109543;28;20039;-67